createdAt,value
2022-11-05T00:02:42.673Z,2.30
2022-11-05T00:05:30.615Z,2.77
2022-11-05T00:08:18.348Z,2.80
2022-11-05T00:10:46.201Z,2.70
2022-11-05T00:13:32.918Z,2.47
2022-11-05T00:16:18.132Z,2.80
2022-11-05T00:19:05.846Z,2.50
2022-11-05T00:21:52.935Z,2.67
2022-11-05T00:24:38.190Z,3.10
2022-11-05T00:27:06.075Z,3.43
2022-11-05T00:29:33.810Z,2.63
2022-11-05T00:32:01.598Z,3.67
2022-11-05T00:34:29.462Z,3.10
2022-11-05T00:36:58.560Z,3.10
2022-11-05T00:39:27.591Z,2.90
2022-11-05T00:42:09.193Z,3.23
2022-11-05T00:44:56.382Z,3.03
2022-11-05T00:47:41.816Z,3.00
2022-11-05T00:50:10.715Z,3.33
2022-11-05T00:52:58.781Z,2.90
2022-11-05T00:55:33.371Z,4.23
2022-11-05T00:58:02.625Z,3.33
2022-11-05T01:00:32.864Z,3.13
2022-11-05T01:03:02.528Z,3.10
2022-11-05T01:05:31.683Z,3.40
2022-11-05T01:08:01.964Z,3.77
2022-11-05T01:10:30.181Z,3.83
2022-11-05T01:12:58.715Z,3.77
2022-11-05T01:15:26.545Z,4.13
2022-11-05T01:17:54.318Z,3.50
2022-11-05T01:20:22.114Z,4.10
2022-11-05T01:22:49.868Z,3.90
2022-11-05T01:25:19.244Z,3.70
2022-11-05T01:27:46.972Z,3.80
2022-11-05T01:30:15.382Z,4.20
2022-11-05T01:32:43.255Z,4.13
2022-11-05T01:35:14.346Z,3.80
2022-11-05T01:37:42.708Z,3.30
2022-11-05T01:40:12.608Z,3.43
2022-11-05T01:42:41.724Z,3.73
2022-11-05T01:45:15.497Z,3.47
2022-11-05T01:47:59.937Z,4.03
2022-11-05T01:50:38.618Z,3.47
2022-11-05T01:53:14.012Z,3.90
2022-11-05T01:55:46.115Z,3.50
2022-11-05T01:58:23.354Z,4.07
2022-11-05T02:00:53.242Z,3.43
2022-11-05T02:03:21.091Z,2.93
2022-11-05T02:05:50.726Z,3.60
2022-11-05T02:08:25.368Z,3.17
2022-11-05T02:10:56.160Z,3.10
2022-11-05T02:13:25.348Z,3.50
2022-11-05T02:16:04.340Z,3.30
2022-11-05T02:18:47.715Z,3.40
2022-11-05T02:21:33.809Z,2.93
2022-11-05T02:24:39.246Z,3.10
2022-11-05T02:27:15.756Z,2.83
2022-11-05T02:30:09.149Z,3.07
2022-11-05T02:32:54.538Z,3.03
2022-11-05T02:35:51.605Z,2.90
2022-11-05T02:38:32.310Z,2.67
2022-11-05T02:41:07.666Z,3.00
2022-11-05T02:43:47.057Z,2.77
2022-11-05T02:46:28.789Z,2.53
2022-11-05T02:49:05.821Z,2.70
2022-11-05T02:51:40.580Z,2.80
2022-11-05T02:54:17.362Z,3.00
2022-11-05T02:56:47.821Z,2.57
2022-11-05T02:59:16.953Z,2.70
2022-11-05T03:01:47.354Z,2.43
2022-11-05T03:04:20.424Z,2.37
2022-11-05T03:07:14.671Z,2.57
2022-11-05T03:10:07.351Z,2.73
2022-11-05T03:12:44.158Z,2.70
2022-11-05T03:15:22.728Z,2.83
2022-11-05T03:18:02.098Z,2.60
2022-11-05T03:20:36.222Z,2.43
2022-11-05T03:23:13.305Z,2.90
2022-11-05T03:25:48.469Z,2.87
2022-11-05T03:28:18.942Z,2.87
2022-11-05T03:30:47.107Z,2.93
2022-11-05T03:33:20.202Z,2.53
2022-11-05T03:35:54.281Z,2.27
2022-11-05T03:38:27.107Z,2.50
2022-11-05T03:40:59.661Z,2.63
2022-11-05T03:43:31.504Z,2.87
2022-11-05T03:46:04.321Z,3.07
2022-11-05T03:48:34.750Z,3.10
2022-11-05T03:51:13.198Z,2.67
2022-11-05T03:53:50.232Z,3.30
2022-11-05T03:56:21.923Z,3.27
2022-11-05T03:58:54.695Z,3.10
2022-11-05T04:01:26.345Z,2.77
2022-11-05T04:03:54.215Z,2.80
2022-11-05T04:06:40.533Z,3.30
2022-11-05T04:09:29.635Z,2.70
2022-11-05T04:12:16.326Z,3.10
2022-11-05T04:14:44.027Z,3.13
2022-11-05T04:17:10.818Z,3.53
2022-11-05T04:19:57.676Z,4.00
2022-11-05T04:22:46.240Z,3.30
2022-11-05T04:25:15.936Z,3.07
2022-11-05T04:27:45.773Z,3.00
2022-11-05T04:30:20.369Z,3.67
2022-11-05T04:33:06.483Z,3.37
2022-11-05T04:35:36.367Z,4.00
2022-11-05T04:38:07.113Z,2.80
2022-11-05T04:40:35.016Z,3.60
2022-11-05T04:43:03.252Z,3.67
2022-11-05T04:45:34.341Z,2.93
2022-11-05T04:48:05.043Z,3.80
2022-11-05T04:50:33.939Z,3.47
2022-11-05T04:53:01.968Z,3.73
2022-11-05T04:55:31.245Z,3.43
2022-11-05T04:58:00.817Z,3.33
2022-11-05T05:00:28.777Z,3.10
2022-11-05T05:02:56.618Z,4.80
2022-11-05T05:05:24.482Z,3.57
2022-11-05T05:07:52.367Z,3.33
2022-11-05T05:10:20.297Z,3.53
2022-11-05T05:12:49.386Z,3.47
2022-11-05T05:15:17.270Z,4.70
2022-11-05T05:17:44.976Z,3.70
2022-11-05T05:20:30.240Z,3.63
2022-11-05T05:22:57.999Z,4.00
2022-11-05T05:25:25.846Z,3.63
2022-11-05T05:27:57.609Z,3.20
2022-11-05T05:30:25.700Z,3.77
2022-11-05T05:32:53.477Z,3.20
2022-11-05T05:35:22.595Z,3.37
2022-11-05T05:37:50.319Z,3.33
2022-11-05T05:40:18.056Z,3.67
2022-11-05T05:42:45.791Z,3.60
2022-11-05T05:45:14.921Z,3.43
2022-11-05T05:47:42.636Z,3.43
2022-11-05T05:50:12.190Z,3.70
2022-11-05T05:52:39.880Z,2.90
2022-11-05T05:55:07.840Z,3.60
2022-11-05T05:57:35.930Z,2.53
2022-11-05T06:00:04.803Z,3.93
2022-11-05T06:02:34.248Z,3.30
2022-11-05T06:05:02.108Z,2.90
2022-11-05T06:07:34.520Z,3.77
2022-11-05T06:10:06.338Z,2.97
2022-11-05T06:12:34.163Z,3.00
2022-11-05T06:15:01.903Z,3.07
2022-11-05T06:17:29.655Z,3.00
2022-11-05T06:19:58.791Z,3.43
2022-11-05T06:22:26.549Z,3.37
2022-11-05T06:24:55.723Z,3.13
2022-11-05T06:27:23.429Z,3.13
2022-11-05T06:29:51.200Z,2.87
2022-11-05T06:32:18.913Z,3.30
2022-11-05T06:34:46.660Z,3.10
2022-11-05T06:37:15.792Z,3.47
2022-11-05T06:39:43.503Z,3.47
2022-11-05T06:42:18.359Z,3.13
2022-11-05T06:44:46.935Z,3.60
2022-11-05T06:47:14.729Z,3.20
2022-11-05T06:49:42.493Z,2.87
2022-11-05T06:52:10.264Z,3.70
2022-11-05T06:54:39.674Z,3.23
2022-11-05T06:57:09.548Z,3.20
2022-11-05T06:59:37.598Z,3.27
2022-11-05T07:02:06.353Z,2.93
2022-11-05T07:04:34.596Z,3.00
2022-11-05T07:07:02.468Z,3.37
2022-11-05T07:09:30.697Z,2.90
2022-11-05T07:11:59.753Z,3.70
2022-11-05T07:14:27.506Z,3.43
2022-11-05T07:16:55.292Z,3.10
2022-11-05T07:19:24.945Z,3.03
2022-11-05T07:21:52.680Z,3.53
2022-11-05T07:24:20.344Z,2.97
2022-11-05T07:26:49.407Z,3.33
2022-11-05T07:29:19.651Z,3.13
2022-11-05T07:31:47.978Z,3.03
2022-11-05T07:34:15.685Z,3.60
2022-11-05T07:36:52.049Z,3.13
2022-11-05T07:39:27.083Z,2.97
2022-11-05T07:41:55.724Z,2.90
2022-11-05T07:44:25.127Z,2.53
2022-11-05T07:46:53.314Z,2.40
2022-11-05T07:49:21.059Z,2.13
2022-11-05T07:51:48.819Z,2.60
2022-11-05T07:54:16.629Z,2.23
2022-11-05T07:56:45.051Z,2.30
2022-11-05T07:59:13.125Z,2.40
2022-11-05T08:01:42.296Z,2.30
2022-11-05T08:04:10.527Z,2.00
2022-11-05T08:06:38.598Z,1.83
2022-11-05T08:09:06.553Z,1.83
2022-11-05T08:11:35.897Z,2.00
2022-11-05T08:14:03.680Z,1.97
2022-11-05T08:16:31.398Z,1.40
2022-11-05T08:19:00.765Z,1.93
2022-11-05T08:21:28.568Z,2.10
2022-11-05T08:23:56.659Z,1.87
2022-11-05T08:26:24.548Z,1.60
2022-11-05T08:28:52.367Z,1.50
2022-11-05T08:31:20.155Z,2.00
2022-11-05T08:33:47.968Z,1.90
2022-11-05T08:36:17.069Z,1.40
2022-11-05T08:38:44.835Z,1.27
2022-11-05T08:41:12.795Z,1.40
2022-11-05T08:43:40.665Z,1.60
2022-11-05T08:46:08.537Z,1.30
2022-11-05T08:48:36.264Z,1.40
2022-11-05T08:51:04.175Z,1.90
2022-11-05T08:53:33.240Z,1.37
2022-11-05T08:56:01.028Z,1.50
2022-11-05T08:58:29.917Z,1.40
2022-11-05T09:01:05.773Z,1.40
2022-11-05T09:03:33.720Z,1.43
2022-11-05T09:06:01.639Z,1.50
2022-11-05T09:08:29.466Z,1.50
2022-11-05T09:10:58.585Z,1.23
2022-11-05T09:13:28.896Z,1.67
2022-11-05T09:15:59.319Z,1.70
2022-11-05T09:18:29.692Z,1.60
2022-11-05T09:20:57.500Z,1.70
2022-11-05T09:23:25.205Z,1.50
2022-11-05T09:25:53.206Z,1.43
2022-11-05T09:28:24.070Z,1.60
2022-11-05T09:30:53.874Z,1.70
2022-11-05T09:33:23.978Z,1.87
2022-11-05T09:35:51.805Z,1.60
2022-11-05T09:38:20.329Z,1.30
2022-11-05T09:40:55.385Z,1.67
2022-11-05T09:43:31.658Z,1.27
2022-11-05T09:46:03.371Z,1.33
2022-11-05T09:48:33.783Z,1.50
2022-11-05T09:51:06.654Z,1.30
2022-11-05T09:53:40.808Z,1.30
2022-11-05T09:56:21.080Z,0.90
2022-11-05T09:58:54.447Z,1.30
2022-11-05T10:01:26.387Z,1.30
2022-11-05T10:03:58.042Z,1.67
2022-11-05T10:06:28.688Z,1.13
2022-11-05T10:09:03.963Z,1.30
2022-11-05T10:11:36.622Z,1.70
2022-11-05T10:14:11.690Z,1.20
2022-11-05T10:16:43.458Z,1.27
2022-11-05T10:19:22.029Z,1.53
2022-11-05T10:22:06.006Z,2.23
2022-11-05T10:24:34.669Z,1.23
2022-11-05T10:27:02.774Z,1.20
2022-11-05T10:29:34.740Z,1.00
2022-11-05T10:32:05.854Z,1.30
2022-11-05T10:34:42.859Z,1.30
2022-11-05T10:37:13.655Z,1.13
2022-11-05T10:39:45.106Z,1.17
2022-11-05T10:42:39.446Z,1.30
2022-11-05T10:45:20.920Z,1.40
2022-11-05T10:47:59.125Z,1.20
2022-11-05T10:50:29.979Z,1.07
2022-11-05T10:53:00.576Z,1.23
2022-11-05T10:55:30.800Z,0.80
2022-11-05T10:58:10.476Z,1.63
2022-11-05T11:00:39.794Z,1.17
2022-11-05T11:03:40.237Z,1.20
2022-11-05T11:06:27.740Z,1.07
2022-11-05T11:08:57.700Z,0.90
2022-11-05T11:11:35.726Z,0.90
2022-11-05T11:14:08.060Z,1.20
2022-11-05T11:16:39.637Z,1.27
2022-11-05T11:19:26.709Z,1.37
2022-11-05T11:22:19.783Z,1.10
2022-11-05T11:24:49.676Z,1.10
2022-11-05T11:27:22.146Z,1.00
2022-11-05T11:29:55.579Z,0.97
2022-11-05T11:32:28.457Z,1.20
2022-11-05T11:34:58.131Z,2.67
2022-11-05T11:37:28.861Z,1.07
2022-11-05T11:40:01.112Z,0.80
2022-11-05T11:42:32.912Z,0.60
2022-11-05T11:45:05.361Z,0.97
2022-11-05T11:47:35.205Z,0.80
2022-11-05T11:50:03.964Z,0.70
2022-11-05T11:52:33.083Z,0.80
2022-11-05T11:55:21.186Z,1.10
2022-11-05T11:57:50.664Z,5.43
2022-11-05T12:00:20.219Z,1.00
2022-11-05T12:03:07.818Z,1.10
2022-11-05T12:05:44.722Z,0.97
2022-11-05T12:08:26.699Z,0.80
2022-11-05T12:11:04.153Z,1.20
2022-11-05T12:14:04.387Z,0.70
2022-11-05T12:17:03.050Z,1.30
2022-11-05T12:19:48.274Z,0.90
2022-11-05T12:22:21.599Z,1.17
2022-11-05T12:25:14.476Z,0.97
2022-11-05T12:27:56.576Z,0.70
2022-11-05T12:30:24.637Z,0.90
2022-11-05T12:33:14.566Z,1.00
2022-11-05T12:35:57.751Z,0.80
2022-11-05T12:38:50.067Z,0.80
2022-11-05T12:41:27.639Z,0.90
2022-11-05T12:44:10.992Z,0.80
2022-11-05T12:46:46.479Z,1.10
2022-11-05T12:49:31.935Z,1.00
2022-11-05T12:52:18.513Z,0.90
2022-11-05T12:55:04.659Z,0.80
2022-11-05T12:57:44.985Z,1.10
2022-11-05T13:00:19.991Z,1.00
2022-11-05T13:02:53.959Z,1.10
2022-11-05T13:05:28.951Z,1.27
2022-11-05T13:08:07.459Z,0.90
2022-11-05T13:10:40.660Z,1.03
2022-11-05T13:13:17.284Z,0.70
2022-11-05T13:15:51.731Z,1.00
2022-11-05T13:18:26.614Z,0.90
2022-11-05T13:20:58.692Z,1.10
2022-11-05T13:23:39.054Z,1.07
2022-11-05T13:26:15.668Z,0.90
2022-11-05T13:28:52.835Z,1.07
2022-11-05T13:31:24.538Z,0.97
2022-11-05T13:33:56.471Z,1.00
2022-11-05T13:36:46.184Z,1.10
2022-11-05T13:39:20.621Z,0.80
2022-11-05T13:42:25.070Z,0.90
2022-11-05T13:45:07.720Z,1.00
2022-11-05T13:48:02.657Z,0.93
2022-11-05T13:51:08.550Z,0.90
2022-11-05T13:54:14.494Z,1.00
2022-11-05T13:57:02.884Z,1.90
2022-11-05T13:59:44.583Z,0.97
2022-11-05T14:02:17.731Z,0.90
2022-11-05T14:04:48.435Z,0.90
2022-11-05T14:07:20.550Z,1.00
2022-11-05T14:09:54.713Z,1.10
2022-11-05T14:12:29.317Z,1.00
2022-11-05T14:15:05.000Z,1.33
2022-11-05T14:17:36.533Z,1.13
2022-11-05T14:20:24.165Z,0.93
2022-11-05T14:22:52.308Z,1.00
2022-11-05T14:25:54.904Z,0.90
2022-11-05T14:28:41.811Z,1.20
2022-11-05T14:32:02.633Z,1.00
2022-11-05T14:34:40.384Z,1.20
2022-11-05T14:37:33.581Z,0.90
2022-11-05T14:40:36.294Z,1.13
2022-11-05T14:43:07.271Z,1.20
2022-11-05T14:45:38.559Z,1.00
2022-11-05T14:48:24.559Z,1.27
2022-11-05T14:50:53.008Z,1.00
2022-11-05T14:53:32.776Z,0.80
2022-11-05T14:56:04.288Z,0.80
2022-11-05T14:58:38.032Z,1.10
2022-11-05T15:01:09.666Z,1.23
2022-11-05T15:04:17.372Z,1.20
2022-11-05T15:07:14.807Z,1.20
2022-11-05T15:09:45.893Z,1.33
2022-11-05T15:12:20.352Z,1.13
2022-11-05T15:14:55.407Z,1.00
2022-11-05T15:17:30.246Z,1.20
2022-11-05T15:20:08.139Z,1.50
2022-11-05T15:22:41.728Z,1.40
2022-11-05T15:25:19.050Z,1.33
2022-11-05T15:28:00.046Z,1.30
2022-11-05T15:30:27.842Z,1.10
2022-11-05T15:33:09.457Z,1.30
2022-11-05T15:35:43.766Z,1.50
2022-11-05T15:38:27.919Z,1.37
2022-11-05T15:41:03.482Z,1.80
2022-11-05T15:43:31.911Z,1.70
2022-11-05T15:46:01.816Z,1.37
2022-11-05T15:48:31.355Z,1.60
2022-11-05T15:50:59.671Z,1.67
2022-11-05T15:53:56.023Z,1.40
2022-11-05T15:56:27.816Z,1.30
2022-11-05T15:59:03.667Z,1.10
2022-11-05T16:01:34.509Z,1.30
2022-11-05T16:04:13.949Z,1.40
2022-11-05T16:06:43.916Z,1.30
2022-11-05T16:09:22.094Z,1.23
2022-11-05T16:11:49.834Z,1.50
2022-11-05T16:14:20.139Z,0.90
2022-11-05T16:16:47.932Z,1.20
2022-11-05T16:19:40.284Z,1.20
2022-11-05T16:22:08.784Z,1.17
2022-11-05T16:24:36.737Z,1.30
2022-11-05T16:27:07.040Z,1.10
2022-11-05T16:29:37.060Z,1.10
2022-11-05T16:32:07.574Z,1.50
2022-11-05T16:34:41.274Z,1.30
2022-11-05T16:37:13.332Z,1.73
2022-11-05T16:39:41.060Z,1.37
2022-11-05T16:42:39.558Z,1.70
2022-11-05T16:45:08.665Z,1.60
2022-11-05T16:47:36.443Z,1.53
2022-11-05T16:50:14.460Z,1.60
2022-11-05T16:52:43.816Z,2.10
2022-11-05T16:55:11.906Z,1.73
2022-11-05T16:57:43.471Z,1.60
2022-11-05T17:00:14.448Z,1.70
2022-11-05T17:02:42.423Z,1.90
2022-11-05T17:05:18.774Z,1.70
2022-11-05T17:07:46.981Z,1.70
2022-11-05T17:10:14.815Z,1.73
2022-11-05T17:12:45.210Z,2.07
2022-11-05T17:15:22.796Z,2.07
2022-11-05T17:17:51.274Z,2.30
2022-11-05T17:20:28.678Z,2.30
2022-11-05T17:23:00.540Z,2.10
2022-11-05T17:25:29.403Z,2.60
2022-11-05T17:27:57.543Z,3.03
2022-11-05T17:30:25.957Z,2.03
2022-11-05T17:32:54.009Z,2.37
2022-11-05T17:35:26.066Z,1.83
2022-11-05T17:37:56.954Z,2.30
2022-11-05T17:40:24.990Z,2.00
2022-11-05T17:42:56.927Z,2.10
2022-11-05T17:45:24.689Z,2.10
2022-11-05T17:47:52.385Z,2.57
2022-11-05T17:50:20.359Z,2.10
2022-11-05T17:52:49.533Z,2.27
2022-11-05T17:55:17.849Z,2.33
2022-11-05T17:57:48.588Z,2.30
2022-11-05T18:00:20.260Z,2.20
2022-11-05T18:02:49.686Z,2.10
2022-11-05T18:05:18.116Z,1.97
2022-11-05T18:07:47.371Z,2.07
2022-11-05T18:10:17.557Z,2.10
2022-11-05T18:12:46.322Z,2.13
2022-11-05T18:15:14.889Z,2.13
2022-11-05T18:17:42.857Z,2.10
2022-11-05T18:20:17.392Z,2.20
2022-11-05T18:22:46.871Z,2.23
2022-11-05T18:25:16.155Z,2.37
2022-11-05T18:27:44.668Z,2.40
2022-11-05T18:30:15.480Z,2.27
2022-11-05T18:32:44.277Z,1.93
2022-11-05T18:35:13.176Z,2.60
2022-11-05T18:37:41.275Z,2.60
2022-11-05T18:40:09.566Z,2.60
2022-11-05T18:42:38.917Z,2.70
2022-11-05T18:45:08.140Z,2.57
2022-11-05T18:47:35.969Z,2.30
2022-11-05T18:50:04.214Z,2.87
2022-11-05T18:52:32.856Z,2.57
2022-11-05T18:55:00.959Z,4.70
2022-11-05T18:57:28.738Z,2.60
2022-11-05T18:59:57.815Z,2.50
2022-11-05T19:02:25.669Z,2.67
2022-11-05T19:05:26.776Z,2.60
2022-11-05T19:07:41.315Z,2.50
2022-11-05T19:10:09.545Z,2.60
2022-11-05T19:12:38.924Z,3.87
2022-11-05T19:15:09.282Z,3.63
2022-11-05T19:17:38.926Z,4.03
2022-11-05T19:20:08.139Z,3.67
2022-11-05T19:22:35.853Z,4.40
2022-11-05T19:25:03.599Z,4.77
2022-11-05T19:27:31.573Z,5.70
2022-11-05T19:29:59.287Z,4.80
2022-11-05T19:32:28.443Z,4.90
2022-11-05T19:34:56.167Z,6.50
2022-11-05T19:37:23.862Z,6.80
2022-11-05T19:39:52.033Z,6.30
2022-11-05T19:42:19.736Z,5.60
2022-11-05T19:44:47.497Z,5.43
2022-11-05T19:47:15.221Z,4.77
2022-11-05T19:49:44.257Z,4.80
2022-11-05T19:52:11.944Z,4.93
2022-11-05T19:54:39.834Z,4.27
2022-11-05T19:57:07.600Z,4.37
2022-11-05T19:59:35.291Z,4.10
2022-11-05T20:02:03.107Z,4.10
2022-11-05T20:04:30.973Z,4.63
2022-11-05T20:07:00.254Z,4.93
2022-11-05T20:09:28.117Z,4.93
2022-11-05T20:11:58.856Z,4.50
2022-11-05T20:14:27.559Z,4.20
2022-11-05T20:16:55.810Z,4.73
2022-11-05T20:19:24.258Z,4.20
2022-11-05T20:21:52.204Z,5.20
2022-11-05T20:24:25.149Z,4.40
2022-11-05T20:26:54.624Z,4.50
2022-11-05T20:29:23.310Z,5.17
2022-11-05T20:31:51.598Z,5.23
2022-11-05T20:34:19.458Z,4.80
2022-11-05T20:36:47.289Z,5.57
2022-11-05T20:39:15.054Z,5.57
2022-11-05T20:41:44.354Z,4.60
2022-11-05T20:44:12.091Z,5.13
2022-11-05T20:46:39.890Z,5.87
2022-11-05T20:49:07.808Z,5.60
2022-11-05T20:51:35.523Z,5.50
2022-11-05T20:54:03.925Z,5.13
2022-11-05T20:56:34.681Z,5.10
2022-11-05T20:59:05.455Z,5.47
2022-11-05T21:01:35.124Z,5.47
2022-11-05T21:04:04.269Z,5.43
2022-11-05T21:06:32.795Z,6.23
2022-11-05T21:09:00.806Z,8.40
2022-11-05T21:11:29.039Z,8.37
2022-11-05T21:13:56.782Z,9.17
2022-11-05T21:16:25.938Z,9.47
2022-11-05T21:18:53.686Z,9.37
2022-11-05T21:21:21.774Z,9.57
2022-11-05T21:23:49.681Z,9.50
2022-11-05T21:26:19.962Z,9.27
2022-11-05T21:28:47.836Z,8.20
2022-11-05T21:31:15.543Z,8.20
2022-11-05T21:33:44.641Z,8.50
2022-11-05T21:36:14.159Z,8.43
2022-11-05T21:38:42.709Z,7.80
2022-11-05T21:41:12.557Z,8.40
2022-11-05T21:43:41.688Z,7.67
2022-11-05T21:46:10.723Z,8.07
2022-11-05T21:48:38.684Z,8.03
2022-11-05T21:51:25.315Z,8.33
2022-11-05T21:54:10.558Z,6.87
2022-11-05T21:56:56.188Z,8.03
2022-11-05T21:59:43.076Z,8.00
2022-11-05T22:02:13.341Z,7.70
2022-11-05T22:04:42.964Z,8.13
2022-11-05T22:07:13.937Z,7.87
2022-11-05T22:09:42.283Z,7.87
2022-11-05T22:12:10.393Z,7.40
2022-11-05T22:14:38.188Z,7.33
2022-11-05T22:17:06.028Z,7.60
2022-11-05T22:19:34.245Z,7.70
2022-11-05T22:22:02.220Z,7.07
2022-11-05T22:24:31.953Z,7.20
2022-11-05T22:27:00.223Z,7.30
2022-11-05T22:29:28.702Z,6.90
2022-11-05T22:31:57.037Z,7.50
2022-11-05T22:34:25.710Z,7.17
2022-11-05T22:36:53.872Z,7.60
2022-11-05T22:39:23.989Z,7.43
2022-11-05T22:41:55.789Z,7.30
2022-11-05T22:44:24.175Z,7.40
2022-11-05T22:46:51.950Z,7.23
2022-11-05T22:49:21.412Z,7.23
2022-11-05T22:51:49.200Z,7.77
2022-11-05T22:54:17.539Z,7.00
2022-11-05T22:56:45.581Z,6.83
2022-11-05T22:59:16.050Z,6.73
2022-11-05T23:01:45.601Z,6.67
2022-11-05T23:04:14.047Z,7.23
2022-11-05T23:07:01.572Z,7.00
2022-11-05T23:09:48.708Z,6.50
2022-11-05T23:12:27.073Z,7.10
2022-11-05T23:14:57.621Z,6.77
2022-11-05T23:17:42.896Z,7.30
2022-11-05T23:20:32.169Z,6.90
2022-11-05T23:23:17.563Z,7.30
2022-11-05T23:25:45.649Z,6.50
2022-11-05T23:28:14.211Z,7.67
2022-11-05T23:30:59.332Z,7.77
2022-11-05T23:33:27.147Z,7.27
2022-11-05T23:36:12.786Z,6.73
2022-11-05T23:38:40.932Z,7.20
2022-11-05T23:41:26.363Z,7.23
2022-11-05T23:44:11.590Z,7.30
2022-11-05T23:46:58.152Z,7.73
2022-11-05T23:49:25.873Z,8.30
2022-11-05T23:51:53.603Z,6.83
2022-11-05T23:54:21.926Z,7.77
2022-11-05T23:56:49.676Z,7.60
2022-11-05T23:59:19.474Z,7.97
